Time;durP1;ratioP1;P1;durP2;ratioP2;P2;SDS_P1;SDS_P2;PMS_P1;PMS_P2;Temp;Humidity;BMP_temperature;BMP_pressure;BME280_temperature;BME280_humidity;BME280_pressure;Samples;Min_cycle;Max_cycle;Signal;HPM_P1;HPM_P2
2023/10/29 00:00:20;;;;;;;7.68;3.80;;;14.40;99.90;;;14.58;100.00;98728.72;4825880;29;20335;-63
2023/10/29 00:02:49;;;;;;;7.07;4.35;;;14.50;99.90;;;14.78;100.00;98735.59;4825781;29;20054;-64
2023/10/29 00:05:18;;;;;;;7.30;3.75;;;14.60;99.90;;;14.91;100.00;98739.28;4825798;29;20046;-63
2023/10/29 00:07:47;;;;;;;7.35;3.60;;;14.70;99.90;;;15.02;100.00;98716.44;4825906;29;20084;-63
2023/10/29 00:10:16;;;;;;;7.47;3.80;;;14.80;99.90;;;15.04;100.00;98772.28;4809680;29;20058;-64
2023/10/29 00:12:46;;;;;;;6.40;3.78;;;14.80;99.90;;;15.16;100.00;98743.16;4825766;29;20042;-63
2023/10/29 00:15:14;;;;;;;8.93;4.10;;;15.00;99.90;;;15.19;100.00;98726.16;4825618;29;20081;-63
2023/10/29 00:17:42;;;;;;;5.93;3.72;;;15.00;99.90;;;15.25;100.00;98728.47;4825717;29;20042;-63
2023/10/29 00:20:11;;;;;;;6.22;4.03;;;15.10;99.90;;;15.34;100.00;98719.94;4825493;29;20049;-63
2023/10/29 00:22:40;;;;;;;6.43;3.60;;;15.10;99.90;;;15.39;100.00;98707.19;4825446;29;20047;-63
2023/10/29 00:25:10;;;;;;;6.93;3.58;;;15.20;99.90;;;15.41;100.00;98739.09;4825622;29;20062;-64
2023/10/29 00:27:38;;;;;;;6.72;3.38;;;15.20;99.90;;;15.45;100.00;98695.38;4825466;29;20053;-63
2023/10/29 00:30:09;;;;;;;6.50;3.60;;;15.30;99.90;;;15.50;100.00;98722.59;4825511;29;20528;-63
2023/10/29 00:32:37;;;;;;;7.47;3.60;;;15.30;99.90;;;15.49;100.00;98702.22;4823106;29;20066;-65
2023/10/29 00:35:07;;;;;;;7.30;3.63;;;15.30;99.90;;;15.55;100.00;98697.41;4825461;29;20046;-63
2023/10/29 00:37:35;;;;;;;6.10;3.60;;;15.30;99.90;;;15.52;100.00;98702.06;4809305;29;20062;-64
2023/10/29 00:40:05;;;;;;;7.32;3.78;;;15.30;99.90;;;15.52;100.00;98683.41;4825455;29;20046;-63
2023/10/29 00:42:35;;;;;;;7.80;3.65;;;15.30;99.90;;;15.52;100.00;98680.75;4825196;29;20474;-63
2023/10/29 00:45:04;;;;;;;8.80;4.00;;;15.30;99.90;;;15.42;100.00;98714.19;4825366;29;20069;-64
2023/10/29 00:47:34;;;;;;;6.25;3.65;;;15.30;99.90;;;15.60;100.00;98705.13;4825299;29;20078;-63
2023/10/29 00:50:04;;;;;;;6.45;4.05;;;15.40;99.90;;;15.65;100.00;98700.38;4809004;29;20141;-63
2023/10/29 00:52:34;;;;;;;6.90;3.50;;;15.40;99.90;;;15.63;100.00;98665.81;4808989;29;20135;-64
2023/10/29 00:55:03;;;;;;;7.32;3.72;;;15.40;99.90;;;15.47;100.00;98643.69;4808587;29;20058;-65
2023/10/29 00:57:31;;;;;;;6.15;3.45;;;15.40;99.90;;;15.69;100.00;98685.91;4808818;29;20481;-63
2023/10/29 01:00:00;;;;;;;8.18;3.67;;;15.50;99.90;;;15.60;100.00;98702.47;4825133;29;20062;-63
2023/10/29 01:02:30;;;;;;;6.97;4.05;;;15.40;99.90;;;15.50;100.00;98675.50;4808771;29;20075;-63
2023/10/29 01:05:01;;;;;;;6.97;3.80;;;15.30;99.90;;;15.46;100.00;98673.09;4825112;29;20061;-64
2023/10/29 01:07:31;;;;;;;;;;;15.30;99.90;;;15.36;100.00;98668.31;4824514;29;20146;-64
2023/10/29 01:09:59;;;;;;;8.75;3.90;;;15.30;99.90;;;15.56;100.00;98676.94;4824856;29;20020;-63
2023/10/29 01:12:28;;;;;;;7.45;3.75;;;15.30;99.90;;;15.51;100.00;98663.88;4811115;29;20055;-63
2023/10/29 01:14:56;;;;;;;7.28;3.60;;;15.30;99.90;;;15.49;100.00;98657.78;4824646;29;20151;-64
2023/10/29 01:17:25;;;;;;;4.43;3.55;;;15.30;99.90;;;15.52;100.00;98678.06;4808477;29;20136;-63
2023/10/29 01:19:53;;;;;;;4.78;3.30;;;15.30;99.90;;;15.38;100.00;98654.88;4824492;29;20519;-63
2023/10/29 01:22:23;;;;;;;8.27;3.28;;;15.20;99.90;;;15.44;100.00;98643.03;4824514;29;20470;-65
2023/10/29 01:24:51;;;;;;;4.83;3.30;;;15.30;99.90;;;15.48;100.00;98692.53;4807837;29;20050;-63
2023/10/29 01:27:21;;;;;;;5.28;3.70;;;15.30;99.90;;;15.45;100.00;98644.75;4824749;29;20291;-64
2023/10/29 01:29:50;;;;;;;4.50;3.63;;;15.30;99.90;;;15.48;100.00;98649.91;4808242;29;20062;-64
2023/10/29 01:32:19;;;;;;;6.70;4.03;;;15.30;99.90;;;15.55;100.00;98645.91;4824763;29;20331;-64
2023/10/29 01:34:47;;;;;;;6.05;3.10;;;15.30;99.90;;;15.56;100.00;98632.50;4824774;29;20077;-63
2023/10/29 01:37:16;;;;;;;4.97;3.30;;;15.30;99.90;;;15.59;100.00;98623.44;4808168;29;20058;-63
2023/10/29 01:39:46;;;;;;;4.45;3.30;;;15.40;99.90;;;15.60;100.00;98623.34;4824247;29;20058;-64
2023/10/29 01:42:14;;;;;;;5.00;3.27;;;15.40;99.90;;;15.62;100.00;98656.09;4824776;29;20051;-63
2023/10/29 01:44:43;;;;;;;9.18;3.95;;;15.40;99.90;;;15.65;100.00;98644.41;4824220;29;20375;-63
2023/10/29 01:47:11;;;;;;;4.95;3.40;;;15.40;99.90;;;15.58;100.00;98667.88;4809027;29;20111;-63
2023/10/29 01:49:40;;;;;;;5.95;3.75;;;15.40;99.90;;;15.55;100.00;98659.22;4824462;29;20043;-64
2023/10/29 01:52:08;;;;;;;4.25;3.35;;;15.40;99.90;;;15.53;100.00;98680.63;4824580;29;20103;-63
2023/10/29 01:54:36;;;;;;;4.95;3.53;;;15.30;99.90;;;15.50;100.00;98648.88;4810500;29;20056;-64
2023/10/29 01:57:06;;;;;;;7.40;3.25;;;15.30;99.90;;;15.29;100.00;98624.31;4824190;29;20625;-64
2023/10/29 01:59:35;;;;;;;5.80;3.03;;;15.20;99.90;;;15.21;99.61;98641.72;4808052;29;20054;-65
2023/10/29 02:02:03;;;;;;;3.97;2.95;;;15.10;99.90;;;15.20;98.63;98647.97;4820084;29;20050;-64
2023/10/29 02:04:33;;;;;;;6.70;3.00;;;15.00;99.90;;;15.06;97.33;98679.88;4823878;29;20459;-63
2023/10/29 02:07:03;;;;;;;6.47;2.95;;;14.80;99.90;;;14.91;97.41;98609.72;4824056;29;20428;-63
2023/10/29 02:09:31;;;;;;;6.50;3.00;;;14.70;99.90;;;14.72;97.27;98609.09;4824663;29;20134;-64
2023/10/29 02:12:01;;;;;;;4.97;2.93;;;14.60;99.90;;;14.75;97.26;98590.25;4824153;29;20058;-64
2023/10/29 02:14:34;;;;;;;4.47;3.00;;;14.60;99.90;;;14.55;97.76;98624.28;4819412;29;20441;-63
2023/10/29 02:17:03;;;;;;;5.93;3.38;;;14.40;99.90;;;14.45;99.50;98560.13;4824215;29;20057;-63
2023/10/29 02:19:31;;;;;;;9.98;3.50;;;14.30;99.90;;;14.51;99.98;98606.78;4807525;29;20038;-63
2023/10/29 02:22:01;;;;;;;4.75;3.15;;;14.30;99.90;;;14.32;100.00;98613.13;4823763;29;20082;-63
2023/10/29 02:24:29;;;;;;;4.63;3.08;;;14.20;99.90;;;14.33;99.96;98592.72;4823994;29;20110;-64
2023/10/29 02:26:58;;;;;;;4.75;3.10;;;14.10;99.90;;;14.24;99.33;98625.09;4822189;29;20066;-64
2023/10/29 02:29:26;;;;;;;7.78;3.45;;;14.10;99.90;;;14.23;98.99;98628.69;4823912;29;20042;-63
2023/10/29 02:31:55;;;;;;;3.85;2.90;;;14.00;99.90;;;14.12;98.59;98608.03;4824037;29;20050;-64
2023/10/29 02:34:23;;;;;;;6.05;2.80;;;14.00;99.90;;;14.25;98.65;98629.47;4823613;29;20137;-64
2023/10/29 02:36:51;;;;;;;7.15;3.10;;;14.00;99.90;;;14.11;98.52;98618.75;4823494;29;20565;-63
2023/10/29 02:39:21;;;;;;;9.60;3.20;;;13.90;99.90;;;14.10;98.65;98627.66;4823752;29;20107;-64
2023/10/29 02:41:50;;;;;;;5.63;2.92;;;13.90;99.90;;;14.07;99.04;98618.03;4823663;29;20513;-64
2023/10/29 02:44:19;;;;;;;4.47;3.03;;;13.90;99.90;;;14.14;99.59;98607.94;4811015;29;20054;-63
2023/10/29 02:46:47;;;;;;;6.13;3.38;;;13.90;99.90;;;14.14;100.00;98614.13;4809533;29;20107;-63
2023/10/29 02:49:15;;;;;;;5.40;2.90;;;13.90;99.90;;;14.19;100.00;98621.81;4807243;29;20469;-63
2023/10/29 02:51:45;;;;;;;6.63;3.25;;;14.00;99.90;;;14.05;100.00;98624.41;4823579;29;20470;-63
2023/10/29 02:54:14;;;;;;;6.25;3.10;;;13.90;99.90;;;14.01;100.00;98644.13;4807195;29;20054;-63
2023/10/29 02:56:43;;;;;;;5.57;2.92;;;13.80;99.90;;;14.10;100.00;98640.94;4823676;29;20046;-63
2023/10/29 02:59:12;;;;;;;6.77;3.00;;;13.90;99.90;;;14.12;100.00;98615.13;4823776;29;20050;-64
2023/10/29 03:01:40;;;;;;;6.65;3.05;;;13.90;99.90;;;14.17;100.00;98618.38;4807381;29;20137;-63
2023/10/29 03:04:09;;;;;;;6.22;2.92;;;14.00;99.90;;;14.30;100.00;98632.78;4823792;29;20505;-63
2023/10/29 03:06:41;;;;;;;4.82;3.40;;;14.10;99.90;;;14.28;100.00;98605.41;4816580;29;20450;-63
2023/10/29 03:09:11;;;;;;;6.15;3.17;;;14.10;99.90;;;14.37;100.00;98618.19;4807616;29;20114;-63
2023/10/29 03:11:39;;;;;;;8.27;3.03;;;14.20;99.90;;;14.44;100.00;98631.06;4823890;29;20050;-63
2023/10/29 03:14:09;;;;;;;6.38;3.13;;;14.20;99.90;;;14.55;100.00;98613.66;4817863;29;20042;-63
2023/10/29 03:16:38;;;;;;;7.35;2.92;;;14.30;99.90;;;14.57;100.00;98627.72;4823709;29;20089;-64
2023/10/29 03:19:06;;;;;;;6.60;3.35;;;14.30;99.90;;;14.66;100.00;98625.41;4823902;29;20103;-63
2023/10/29 03:21:35;;;;;;;4.15;2.80;;;14.40;99.90;;;14.70;100.00;98656.22;4819262;29;20162;-64
2023/10/29 03:24:04;;;;;;;5.50;3.33;;;14.50;99.90;;;14.78;100.00;98607.88;4823822;29;20079;-64
2023/10/29 03:26:33;;;;;;;3.20;2.75;;;14.50;99.90;;;14.79;100.00;98618.41;4807311;29;20124;-64
2023/10/29 03:29:01;;;;;;;4.78;3.03;;;14.60;99.90;;;14.87;100.00;98612.66;4805325;29;20520;-63
2023/10/29 03:31:31;;;;;;;3.05;2.78;;;14.60;99.90;;;14.92;100.00;98639.88;4807035;29;20054;-63
2023/10/29 03:34:00;;;;;;;7.53;3.47;;;14.70;99.90;;;14.88;100.00;98607.25;4809119;29;20501;-64
2023/10/29 03:36:28;;;;;;;4.00;3.22;;;14.70;99.90;;;14.89;100.00;98643.56;4809108;29;20121;-64
2023/10/29 03:38:56;;;;;;;4.88;3.10;;;14.70;99.90;;;14.87;100.00;98620.63;4808922;29;20111;-65
2023/10/29 03:41:25;;;;;;;6.38;3.20;;;14.70;99.90;;;14.91;100.00;98622.19;4809006;29;20045;-63
2023/10/29 03:43:54;;;;;;;7.10;3.50;;;14.60;99.90;;;14.92;100.00;98629.22;4807407;29;20055;-64
2023/10/29 03:46:23;;;;;;;6.97;3.35;;;14.70;99.90;;;14.86;100.00;98609.16;4809058;29;20047;-63
2023/10/29 03:48:53;;;;;;;8.55;3.35;;;14.60;99.90;;;14.85;100.00;98628.72;4816163;29;20490;-64
2023/10/29 03:51:21;;;;;;;4.78;3.20;;;14.60;99.90;;;14.92;100.00;98634.56;4807773;29;20410;-64
2023/10/29 03:53:50;;;;;;;6.00;3.67;;;14.70;99.90;;;14.94;100.00;98630.84;4808800;29;20050;-65
2023/10/29 03:56:18;;;;;;;9.63;3.53;;;14.70;99.90;;;15.02;100.00;98652.56;4808818;29;20047;-64
2023/10/29 03:58:46;;;;;;;13.88;4.20;;;14.70;99.90;;;14.95;100.00;98709.75;4808696;29;20078;-64
2023/10/29 04:01:15;;;;;;;6.70;3.20;;;14.70;99.90;;;14.54;100.00;98703.22;4808357;29;20124;-63
2023/10/29 04:03:44;;;;;;;6.72;3.25;;;14.50;99.90;;;14.30;100.00;98712.56;4808702;29;20042;-64
2023/10/29 04:06:14;;;;;;;4.78;3.22;;;14.20;99.90;;;14.12;100.00;98682.47;4808606;29;20054;-64
2023/10/29 04:08:43;;;;;;;3.83;2.63;;;13.90;99.90;;;14.12;100.00;98681.59;4810724;29;20441;-64
2023/10/29 04:11:12;;;;;;;4.38;2.70;;;13.80;99.90;;;13.94;100.00;98680.78;4808560;29;20050;-64
2023/10/29 04:13:40;;;;;;;6.65;3.13;;;13.70;99.90;;;13.94;100.00;98674.59;4807336;29;20059;-63
2023/10/29 04:16:09;;;;;;;5.43;2.65;;;13.60;99.90;;;14.05;100.00;98675.75;4808481;29;20108;-63
2023/10/29 04:18:37;;;;;;;5.05;2.80;;;13.70;99.90;;;14.06;100.00;98673.94;4808129;29;20051;-64
2023/10/29 04:21:07;;;;;;;9.20;3.13;;;13.70;99.90;;;14.04;100.00;98671.38;4808158;29;20050;-63
2023/10/29 04:23:37;;;;;;;4.82;2.72;;;13.70;99.90;;;14.04;100.00;98673.16;4808329;29;20089;-64
2023/10/29 04:26:05;;;;;;;7.05;3.38;;;13.70;99.90;;;14.04;100.00;98707.72;4817522;29;20054;-63
2023/10/29 04:28:34;;;;;;;6.90;3.60;;;13.70;99.90;;;13.87;100.00;98668.78;4826707;29;20114;-64
2023/10/29 04:31:02;;;;;;;7.13;3.58;;;13.80;99.90;;;14.15;100.00;98689.44;4826256;29;20127;-63
2023/10/29 04:33:32;;;;;;;9.43;3.38;;;13.80;99.90;;;14.07;100.00;98678.34;4826195;29;20042;-63
2023/10/29 04:36:01;;;;;;;7.70;3.63;;;13.80;99.90;;;14.08;100.00;98725.22;4812226;29;20060;-63
2023/10/29 04:38:31;;;;;;;6.90;3.55;;;13.80;99.90;;;14.06;100.00;98706.72;4825965;29;20133;-63
2023/10/29 04:41:01;;;;;;;6.45;3.53;;;13.80;99.90;;;14.03;100.00;98706.03;4825883;29;20103;-64
2023/10/29 04:43:29;;;;;;;4.37;2.97;;;13.80;99.90;;;13.89;100.00;98674.88;4824947;29;20054;-64
2023/10/29 04:45:57;;;;;;;5.90;3.50;;;13.80;99.90;;;13.97;100.00;98698.38;4826258;29;20050;-63
2023/10/29 04:48:26;;;;;;;3.60;3.10;;;13.70;99.90;;;14.01;100.00;98699.94;4825731;29;20042;-63
2023/10/29 04:50:54;;;;;;;8.85;3.42;;;13.80;99.90;;;13.39;100.00;98578.38;4825674;29;20628;-63
2023/10/29 04:53:23;;;;;;;9.95;3.53;;;13.70;99.90;;;14.02;100.00;98683.03;4825875;29;20400;-63
2023/10/29 04:55:51;;;;;;;13.00;3.67;;;13.70;99.90;;;14.03;100.00;98716.66;4825727;29;20393;-63
2023/10/29 04:58:21;;;;;;;8.50;3.38;;;13.80;99.90;;;14.08;100.00;98696.00;4825705;29;20050;-63
2023/10/29 05:00:49;;;;;;;7.45;3.67;;;13.80;99.90;;;14.08;100.00;98698.66;4825486;29;20046;-63
2023/10/29 05:03:17;;;;;;;10.13;3.90;;;13.80;99.90;;;14.05;100.00;98698.84;4820399;29;20054;-63
2023/10/29 05:05:46;;;;;;;8.25;3.72;;;13.80;99.90;;;14.10;100.00;98689.66;4825529;29;20043;-64
2023/10/29 05:08:18;;;;;;;7.65;3.60;;;13.90;99.90;;;14.16;100.00;98728.34;4825613;29;20515;-63
2023/10/29 05:10:46;;;;;;;9.80;3.40;;;13.90;99.90;;;14.11;100.00;98709.13;4825925;29;20133;-63
2023/10/29 05:13:15;;;;;;;8.15;4.38;;;13.90;99.90;;;14.12;100.00;98726.78;4825521;29;20046;-63
2023/10/29 05:15:45;;;;;;;8.25;3.38;;;13.90;99.90;;;14.13;100.00;98724.03;4825742;29;20047;-63
2023/10/29 05:18:13;;;;;;;10.40;3.83;;;13.90;99.90;;;14.05;100.00;98733.38;4811639;29;20064;-63
2023/10/29 05:20:42;;;;;;;10.73;3.78;;;13.80;99.90;;;14.04;100.00;98729.00;4825464;29;20054;-63
2023/10/29 05:23:10;;;;;;;7.65;3.38;;;13.80;99.90;;;14.01;100.00;98730.03;4825095;29;20050;-63
2023/10/29 05:25:39;;;;;;;10.20;3.40;;;13.70;99.90;;;13.94;100.00;98741.03;4825057;29;20501;-64
2023/10/29 05:28:07;;;;;;;12.57;4.00;;;13.70;99.90;;;13.96;100.00;98761.28;4825330;29;20058;-64
2023/10/29 05:30:36;;;;;;;12.27;3.20;;;13.70;99.90;;;13.97;100.00;98744.41;4816643;29;20082;-63
2023/10/29 05:33:06;;;;;;;8.70;3.45;;;13.70;99.90;;;13.92;100.00;98758.84;4824883;29;20103;-63
2023/10/29 05:35:34;;;;;;;12.18;3.20;;;13.70;99.90;;;13.86;100.00;98754.72;4825076;29;20046;-64
2023/10/29 05:38:03;;;;;;;12.18;4.20;;;13.60;99.90;;;13.82;100.00;98744.34;4825554;29;20046;-62
2023/10/29 05:40:31;;;;;;;10.98;3.35;;;13.60;99.90;;;13.87;100.00;98759.13;4824928;29;20053;-63
2023/10/29 05:42:59;;;;;;;11.27;3.65;;;13.60;99.90;;;13.87;100.00;98776.84;4825049;29;20454;-63
2023/10/29 05:45:28;;;;;;;13.77;4.20;;;13.60;99.90;;;13.75;100.00;98748.25;4824838;29;20405;-63
2023/10/29 05:47:58;;;;;;;11.23;3.88;;;13.60;99.90;;;13.88;100.00;98774.09;4824886;29;20133;-63
2023/10/29 05:50:28;;;;;;;11.75;3.58;;;13.60;99.90;;;13.72;100.00;98754.59;4825039;29;20130;-63
2023/10/29 05:52:56;;;;;;;13.27;4.13;;;13.60;99.90;;;13.86;100.00;98777.81;4824695;29;20073;-63
2023/10/29 05:55:25;;;;;;;14.93;3.60;;;13.60;99.90;;;13.86;100.00;98773.31;4824843;29;20615;-63
2023/10/29 05:57:53;;;;;;;13.20;4.53;;;13.60;99.90;;;13.89;100.00;98777.63;4825119;29;20050;-63
2023/10/29 06:00:22;;;;;;;10.60;4.15;;;13.60;99.90;;;13.79;100.00;98774.59;4810219;29;20043;-63
2023/10/29 06:02:50;;;;;;;12.07;3.80;;;13.60;99.90;;;13.77;100.00;98794.19;4824542;29;20549;-63
2023/10/29 06:05:19;;;;;;;11.88;3.90;;;13.50;99.90;;;13.79;100.00;98782.56;4824561;29;20045;-63
2023/10/29 06:07:49;;;;;;;12.88;3.65;;;13.60;99.90;;;13.86;100.00;98777.81;4824545;29;20043;-63
2023/10/29 06:10:17;;;;;;;13.48;3.80;;;13.60;99.90;;;13.82;100.00;98787.69;4824597;29;20101;-64
2023/10/29 06:12:46;;;;;;;15.68;3.85;;;13.60;99.90;;;13.73;100.00;98777.56;4824680;29;20058;-63
2023/10/29 06:15:14;;;;;;;10.13;4.15;;;13.50;99.90;;;13.83;100.00;98777.94;4825084;29;20060;-63
2023/10/29 06:17:43;;;;;;;10.43;4.18;;;13.60;99.90;;;13.84;100.00;98771.72;4824418;29;20484;-63
2023/10/29 06:20:17;;;;;;;14.13;3.83;;;13.60;99.90;;;13.84;100.00;98785.00;4824468;29;20095;-63
2023/10/29 06:22:45;;;;;;;9.13;3.72;;;13.60;99.90;;;13.85;100.00;98768.97;4824753;29;20392;-63
2023/10/29 06:25:15;;;;;;;11.77;4.25;;;13.60;99.90;;;13.79;100.00;98790.53;4824219;29;20054;-63
2023/10/29 06:27:44;;;;;;;8.77;3.90;;;13.50;99.90;;;13.81;100.00;98814.34;4824270;29;20450;-64
2023/10/29 06:30:12;;;;;;;8.18;4.00;;;13.60;99.90;;;13.86;100.00;98809.69;4824191;29;20089;-63
2023/10/29 06:32:41;;;;;;;10.77;3.95;;;13.60;99.90;;;13.87;100.00;98852.13;4824169;29;20130;-63
2023/10/29 06:35:11;;;;;;;9.38;3.88;;;13.60;99.90;;;13.81;100.00;98843.59;4820275;29;20065;-63
2023/10/29 06:37:40;;;;;;;9.63;3.83;;;13.60;99.90;;;13.77;100.00;98852.66;4824161;29;20057;-63
2023/10/29 06:40:09;;;;;;;7.47;4.05;;;13.60;99.90;;;13.79;100.00;98867.59;4824155;29;20138;-64
2023/10/29 06:42:39;;;;;;;8.23;3.35;;;13.50;99.90;;;13.77;100.00;98869.47;4823986;29;20050;-64
2023/10/29 06:45:09;;;;;;;10.38;4.07;;;13.50;99.90;;;13.79;100.00;98874.69;4824294;29;20082;-63
2023/10/29 06:47:38;;;;;;;10.13;3.80;;;13.50;99.90;;;13.20;100.00;98797.94;4824150;29;20065;-64
2023/10/29 06:50:07;;;;;;;8.65;4.13;;;13.60;99.90;;;13.83;100.00;98889.53;4824017;29;20454;-64
2023/10/29 06:52:36;;;;;;;8.68;4.22;;;13.60;99.90;;;13.80;100.00;98908.31;4823903;29;20046;-64
2023/10/29 06:55:06;;;;;;;8.27;4.18;;;13.60;99.90;;;13.77;100.00;98903.13;4823926;29;20508;-64
2023/10/29 06:57:35;;;;;;;11.20;4.05;;;13.50;99.90;;;13.80;100.00;98926.91;4824133;29;20038;-64
2023/10/29 07:00:07;;;;;;;9.93;3.42;;;13.50;99.90;;;13.80;100.00;98905.66;4823823;29;20504;-64
2023/10/29 07:02:36;;;;;;;11.05;3.85;;;13.60;99.90;;;13.64;100.00;98880.75;4823785;29;20534;-65
2023/10/29 07:05:06;;;;;;;9.20;3.72;;;13.60;99.90;;;13.86;100.00;98910.66;4822924;29;20054;-64
2023/10/29 07:07:35;;;;;;;9.38;3.70;;;13.60;99.90;;;13.89;100.00;98926.44;4823713;29;20046;-65
2023/10/29 07:10:04;;;;;;;10.77;3.60;;;13.60;99.90;;;13.85;100.00;98924.88;4823760;29;20099;-64
2023/10/29 07:12:33;;;;;;;11.73;3.93;;;13.60;99.90;;;13.84;100.00;98939.94;4823800;29;20054;-64
2023/10/29 07:15:02;;;;;;;6.90;3.70;;;13.60;99.90;;;13.69;100.00;98931.84;4823808;29;21028;-64
2023/10/29 07:17:32;;;;;;;9.63;3.78;;;13.60;99.90;;;13.85;100.00;98959.41;4823565;29;20063;-63
2023/10/29 07:20:00;;;;;;;10.98;4.28;;;13.60;99.90;;;13.82;100.00;98963.06;4823577;29;20053;-64
2023/10/29 07:22:29;;;;;;;9.00;3.55;;;13.60;99.90;;;13.92;100.00;98966.16;4823830;29;20087;-64
2023/10/29 07:24:57;;;;;;;11.25;3.70;;;13.60;99.90;;;14.04;100.00;98962.91;4823247;29;20057;-63
2023/10/29 07:27:26;;;;;;;13.18;4.03;;;13.80;99.90;;;14.04;100.00;98957.59;4823571;29;20054;-64
2023/10/29 07:29:54;;;;;;;7.72;3.60;;;13.80;99.90;;;14.07;100.00;98952.13;4823680;29;20517;-64
2023/10/29 07:32:25;;;;;;;13.60;3.53;;;13.80;99.90;;;14.06;100.00;98961.03;4809261;29;20087;-63
2023/10/29 07:34:56;;;;;;;11.73;3.80;;;13.90;99.90;;;13.97;100.00;98996.03;4823742;29;20539;-63
2023/10/29 07:37:24;;;;;;;12.93;4.30;;;13.80;99.90;;;14.04;100.00;98995.69;4823431;29;20163;-63
2023/10/29 07:39:53;;;;;;;10.55;4.22;;;13.80;99.90;;;14.02;100.00;98967.44;4823762;29;20173;-63
2023/10/29 07:42:22;;;;;;;9.15;3.75;;;13.80;99.90;;;14.14;100.00;98954.41;4823857;29;20439;-63
2023/10/29 07:44:51;;;;;;;10.30;3.38;;;13.90;99.90;;;14.35;99.98;98979.09;4823553;29;20473;-63
2023/10/29 07:47:20;;;;;;;9.00;4.22;;;14.00;99.90;;;14.60;98.52;98974.28;4807027;29;20062;-65
2023/10/29 07:49:49;;;;;;;10.07;3.97;;;14.30;99.90;;;14.81;96.43;98962.50;4822906;29;20529;-65
2023/10/29 07:52:18;;;;;;;10.90;3.45;;;14.50;99.90;;;15.10;95.12;98972.50;4815714;29;20054;-64
2023/10/29 07:54:47;;;;;;;9.07;3.60;;;14.80;99.90;;;15.28;93.00;99006.16;4823147;29;20050;-64
2023/10/29 07:57:15;;;;;;;8.13;3.50;;;15.00;99.90;;;15.43;91.12;98977.84;4823424;29;20408;-64
2023/10/29 07:59:44;;;;;;;9.13;3.50;;;15.20;99.90;;;15.24;90.48;99035.69;4823241;29;20050;-62
2023/10/29 08:02:13;;;;;;;8.00;3.63;;;15.10;99.90;;;15.11;90.62;99021.28;4823289;29;20098;-62
2023/10/29 08:04:42;;;;;;;8.48;3.40;;;14.90;99.90;;;14.94;90.65;99021.31;4823169;29;20050;-64
2023/10/29 08:07:10;;;;;;;5.72;3.38;;;14.70;99.90;;;14.89;91.36;99039.31;4822845;29;20099;-62
2023/10/29 08:09:40;;;;;;;8.50;3.42;;;14.60;99.90;;;14.89;91.41;99013.56;4822890;29;20133;-63
2023/10/29 08:12:08;;;;;;;13.60;4.17;;;14.60;99.90;;;14.84;91.15;99020.06;4823228;29;20141;-62
2023/10/29 08:14:37;;;;;;;7.65;3.47;;;14.60;99.90;;;14.93;90.41;99054.19;4809222;29;20421;-63
2023/10/29 08:17:05;;;;;;;6.78;3.22;;;14.70;99.90;;;14.99;89.76;99025.47;4825121;29;20060;-63
2023/10/29 08:19:34;;;;;;;7.35;3.30;;;14.70;99.90;;;15.14;89.13;99016.66;4826488;29;20100;-63
2023/10/29 08:22:03;;;;;;;7.07;3.38;;;14.90;99.90;;;15.15;88.75;99034.38;4826254;29;20450;-65
2023/10/29 08:24:31;;;;;;;5.88;3.13;;;14.90;99.90;;;15.13;88.38;99027.41;4825836;29;20050;-63
2023/10/29 08:27:01;;;;;;;8.35;3.13;;;14.90;99.90;;;15.12;88.28;99020.34;4825612;29;20050;-63
2023/10/29 08:29:29;;;;;;;11.33;3.80;;;14.90;99.90;;;15.05;88.88;99041.13;4826404;29;20050;-63
2023/10/29 08:31:57;;;;;;;8.43;3.67;;;14.80;99.90;;;15.07;89.67;99049.03;4826171;29;20042;-62
2023/10/29 08:34:26;;;;;;;9.52;3.33;;;14.80;99.90;;;15.15;89.79;99038.84;4825752;29;20043;-63
2023/10/29 08:36:54;;;;;;;8.77;3.72;;;14.90;99.90;;;15.05;90.04;99050.91;4825735;29;20065;-65
2023/10/29 08:39:23;;;;;;;7.25;3.50;;;14.80;99.90;;;15.04;90.29;99099.78;4825657;29;20046;-63
2023/10/29 08:41:52;;;;;;;8.30;3.85;;;14.80;99.90;;;15.03;90.23;99051.00;4825574;29;20299;-64
2023/10/29 08:44:22;;;;;;;10.30;3.75;;;14.80;99.90;;;14.83;90.31;99066.22;4825662;29;20046;-65
2023/10/29 08:46:51;;;;;;;10.20;3.60;;;14.70;99.90;;;14.75;90.76;99079.09;4825826;29;20054;-66
2023/10/29 08:49:19;;;;;;;10.18;3.70;;;14.50;99.90;;;14.57;91.10;99101.28;4825661;29;20125;-62
2023/10/29 08:51:48;;;;;;;12.00;4.00;;;14.30;99.90;;;14.46;90.89;99123.94;4826102;29;20054;-65
2023/10/29 08:54:17;;;;;;;11.02;4.50;;;14.30;99.90;;;14.46;91.18;99105.31;4809245;29;20054;-62
2023/10/29 08:56:45;;;;;;;10.82;4.68;;;14.20;99.90;;;14.55;91.14;99096.03;4810716;29;20056;-66
2023/10/29 08:59:17;;;;;;;10.15;3.58;;;14.30;99.90;;;14.67;91.11;99127.38;4809365;29;20516;-63
2023/10/29 09:01:47;;;;;;;12.10;4.25;;;14.40;99.90;;;14.72;90.43;99090.75;4825746;29;20050;-62
2023/10/29 09:04:15;;;;;;;9.60;3.83;;;14.50;99.90;;;14.66;90.13;99132.75;4825975;29;20054;-62
2023/10/29 09:06:44;;;;;;;10.43;3.63;;;14.40;99.90;;;14.69;89.63;99111.31;4825592;29;20057;-61
2023/10/29 09:09:12;;;;;;;11.57;4.00;;;14.40;99.90;;;14.60;89.17;99128.59;4825448;29;20050;-61
2023/10/29 09:11:43;;;;;;;9.40;3.60;;;14.40;99.90;;;14.64;89.11;99119.53;4825105;29;20090;-61
2023/10/29 09:14:13;;;;;;;8.00;3.90;;;14.40;99.90;;;14.70;88.70;99134.31;4825288;29;20050;-61
2023/10/29 09:16:41;;;;;;;12.57;3.75;;;14.40;99.90;;;14.65;88.08;99137.22;4817510;29;20101;-62
2023/10/29 09:19:12;;;;;;;12.35;3.88;;;14.40;99.90;;;14.70;88.35;99111.25;4825514;29;20408;-61
2023/10/29 09:21:40;;;;;;;12.18;3.90;;;14.40;99.90;;;14.76;88.69;99116.28;4810792;29;20134;-61
2023/10/29 09:24:09;;;;;;;9.35;4.07;;;14.50;99.90;;;14.80;88.83;99138.25;4808877;29;20076;-61
2023/10/29 09:26:37;;;;;;;9.75;3.83;;;14.50;99.90;;;14.72;88.84;99117.34;4824922;29;20553;-62
2023/10/29 09:29:06;;;;;;;10.35;4.10;;;14.50;99.90;;;14.67;89.49;99124.72;4824407;29;20482;-62
2023/10/29 09:31:34;;;;;;;10.23;4.07;;;14.50;99.90;;;14.67;89.75;99132.69;4824939;29;20111;-63
2023/10/29 09:34:04;;;;;;;12.13;3.90;;;14.40;99.90;;;14.68;90.28;99114.91;4825035;29;20165;-63
2023/10/29 09:36:34;;;;;;;14.95;4.20;;;14.40;99.90;;;14.60;90.53;99149.00;4825440;29;20047;-61
2023/10/29 09:39:03;;;;;;;18.90;5.30;;;14.40;99.90;;;14.59;90.68;99134.88;4825005;29;20054;-62
2023/10/29 09:41:33;;;;;;;17.05;4.55;;;14.30;99.90;;;14.64;91.15;99146.13;4824795;29;20298;-61
2023/10/29 09:44:02;;;;;;;12.88;4.53;;;14.40;99.90;;;14.69;91.27;99133.44;4824906;29;20054;-63
2023/10/29 09:46:32;;;;;;;17.95;4.63;;;14.40;99.90;;;14.61;91.66;99126.81;4824656;29;20046;-63
2023/10/29 09:49:01;;;;;;;16.15;4.38;;;14.40;99.90;;;14.73;91.73;99139.50;4824921;29;20058;-63
2023/10/29 09:51:30;;;;;;;19.00;4.43;;;14.50;99.90;;;14.70;92.13;99139.66;4824376;29;20053;-63
2023/10/29 09:54:01;;;;;;;17.65;4.60;;;14.40;99.90;;;14.65;91.98;99136.34;4824561;29;20103;-63
2023/10/29 09:56:29;;;;;;;17.17;5.10;;;14.40;99.90;;;14.71;91.78;99120.09;4824902;29;20485;-63
2023/10/29 09:58:58;;;;;;;18.33;4.95;;;14.40;99.90;;;14.78;91.93;99103.75;4825161;29;20057;-63
2023/10/29 10:01:27;;;;;;;16.80;5.13;;;14.50;99.90;;;14.73;91.14;99095.09;4824545;29;20130;-63
2023/10/29 10:03:55;;;;;;;21.23;5.28;;;14.50;99.90;;;14.80;90.90;99096.56;4824721;29;20111;-63
2023/10/29 10:06:26;;;;;;;14.93;5.70;;;14.60;99.90;;;15.03;91.34;99101.59;4824420;29;20042;-63
2023/10/29 10:08:57;;;;;;;;;;;14.70;99.90;;;15.27;90.25;99084.31;4825190;29;20144;-63
2023/10/29 10:11:28;;;;;;;16.63;4.90;;;15.10;99.90;;;15.67;89.26;99103.59;4824516;29;20132;-63
2023/10/29 10:13:57;;;;;;;18.88;4.82;;;15.40;99.90;;;15.77;87.82;99105.69;4824428;29;20054;-63
2023/10/29 10:16:25;;;;;;;16.67;4.82;;;15.60;99.90;;;15.74;86.36;99116.50;4824445;29;20046;-63
2023/10/29 10:18:56;;;;;;;17.20;5.07;;;15.50;99.90;;;15.77;86.16;99112.81;4808163;29;20050;-62